TAF KDNL
AMD KDNL 082109Z 0821/0918 30005KT P6SM OVC008 FM082300 32005KT P6SM BKN012 FM090000 28003KT P6SM SCT015 FM090300 VRB03KT P6SM FEW025 SCT250 FM090700 00000KT 4SM BR SCT250 TEMPO 0910/0913 1 1/2SM BR FEW001 FM091400 10004KT 6SM BR SKC=
METAR KDNL
WC KDNL
WS KDNL
WV KDNL